sensor_id;sensor_type;location;lat;lon;timestamp;P1;durP1;ratioP1;P2;durP2;ratioP2
21800;SDS011;11062;51.164;16.924;2022-12-18T00:07:06;329.20;;;90.85;;
21800;SDS011;11062;51.164;16.924;2022-12-18T00:09:35;240.07;;;92.93;;
21800;SDS011;11062;51.164;16.924;2022-12-18T00:12:01;235.30;;;90.95;;
21800;SDS011;11062;51.164;16.924;2022-12-18T00:14:27;240.65;;;95.75;;
21800;SDS011;11062;51.164;16.924;2022-12-18T00:16:53;236.18;;;85.57;;
21800;SDS011;11062;51.164;16.924;2022-12-18T00:19:27;228.05;;;86.57;;
21800;SDS011;11062;51.164;16.924;2022-12-18T00:21:54;221.07;;;85.47;;
21800;SDS011;11062;51.164;16.924;2022-12-18T00:24:25;252.45;;;95.95;;
21800;SDS011;11062;51.164;16.924;2022-12-18T00:26:51;233.32;;;89.20;;
21800;SDS011;11062;51.164;16.924;2022-12-18T00:29:17;238.07;;;92.47;;
21800;SDS011;11062;51.164;16.924;2022-12-18T00:31:49;231.25;;;89.88;;
21800;SDS011;11062;51.164;16.924;2022-12-18T00:34:17;235.70;;;87.40;;
21800;SDS011;11062;51.164;16.924;2022-12-18T00:36:47;254.82;;;100.55;;
21800;SDS011;11062;51.164;16.924;2022-12-18T00:39:14;250.55;;;108.90;;
21800;SDS011;11062;51.164;16.924;2022-12-18T00:41:39;235.85;;;92.10;;
21800;SDS011;11062;51.164;16.924;2022-12-18T00:44:24;241.70;;;89.75;;
21800;SDS011;11062;51.164;16.924;2022-12-18T00:46:50;230.77;;;87.00;;
21800;SDS011;11062;51.164;16.924;2022-12-18T00:49:18;255.63;;;113.75;;
21800;SDS011;11062;51.164;16.924;2022-12-18T00:51:45;240.20;;;101.47;;
21800;SDS011;11062;51.164;16.924;2022-12-18T00:54:14;232.75;;;90.70;;
21800;SDS011;11062;51.164;16.924;2022-12-18T00:56:41;229.65;;;87.85;;
21800;SDS011;11062;51.164;16.924;2022-12-18T00:59:07;233.30;;;92.43;;
21800;SDS011;11062;51.164;16.924;2022-12-18T01:01:33;249.63;;;111.85;;
21800;SDS011;11062;51.164;16.924;2022-12-18T01:04:02;258.73;;;115.90;;
21800;SDS011;11062;51.164;16.924;2022-12-18T01:06:28;247.02;;;103.97;;
21800;SDS011;11062;51.164;16.924;2022-12-18T01:08:57;247.68;;;101.00;;
21800;SDS011;11062;51.164;16.924;2022-12-18T01:11:24;251.48;;;107.55;;
21800;SDS011;11062;51.164;16.924;2022-12-18T01:13:51;235.93;;;93.28;;
21800;SDS011;11062;51.164;16.924;2022-12-18T01:16:18;243.90;;;99.68;;
21800;SDS011;11062;51.164;16.924;2022-12-18T01:18:44;245.10;;;102.60;;
21800;SDS011;11062;51.164;16.924;2022-12-18T01:21:12;243.70;;;102.60;;
21800;SDS011;11062;51.164;16.924;2022-12-18T01:23:43;231.45;;;90.75;;
21800;SDS011;11062;51.164;16.924;2022-12-18T01:26:18;228.38;;;92.00;;
21800;SDS011;11062;51.164;16.924;2022-12-18T01:29:36;233.20;;;91.70;;
21800;SDS011;11062;51.164;16.924;2022-12-18T01:32:43;235.23;;;92.13;;
21800;SDS011;11062;51.164;16.924;2022-12-18T01:36:25;249.48;;;90.65;;
21800;SDS011;11062;51.164;16.924;2022-12-18T02:30:10;227.80;;;86.28;;
21800;SDS011;11062;51.164;16.924;2022-12-18T02:32:40;240.85;;;87.25;;
21800;SDS011;11062;51.164;16.924;2022-12-18T02:35:16;228.82;;;84.60;;
21800;SDS011;11062;51.164;16.924;2022-12-18T02:40:16;240.55;;;89.95;;
21800;SDS011;11062;51.164;16.924;2022-12-18T02:42:44;233.68;;;90.93;;
21800;SDS011;11062;51.164;16.924;2022-12-18T02:45:12;234.18;;;90.03;;
21800;SDS011;11062;51.164;16.924;2022-12-18T02:47:39;253.25;;;109.55;;
21800;SDS011;11062;51.164;16.924;2022-12-18T03:01:42;225.63;;;83.90;;
21800;SDS011;11062;51.164;16.924;2022-12-18T03:04:16;235.05;;;86.57;;
21800;SDS011;11062;51.164;16.924;2022-12-18T03:06:50;220.30;;;80.97;;
21800;SDS011;11062;51.164;16.924;2022-12-18T03:09:21;222.25;;;88.63;;
21800;SDS011;11062;51.164;16.924;2022-12-18T03:11:56;235.45;;;90.28;;
21800;SDS011;11062;51.164;16.924;2022-12-18T03:14:49;229.73;;;87.40;;
21800;SDS011;11062;51.164;16.924;2022-12-18T03:17:26;223.55;;;81.85;;
21800;SDS011;11062;51.164;16.924;2022-12-18T03:19:54;216.88;;;82.72;;
21800;SDS011;11062;51.164;16.924;2022-12-18T03:22:29;244.48;;;85.97;;
21800;SDS011;11062;51.164;16.924;2022-12-18T03:24:58;237.60;;;87.40;;
21800;SDS011;11062;51.164;16.924;2022-12-18T03:27:28;242.25;;;85.90;;
21800;SDS011;11062;51.164;16.924;2022-12-18T03:30:15;251.90;;;89.05;;
21800;SDS011;11062;51.164;16.924;2022-12-18T03:32:44;239.85;;;85.55;;
21800;SDS011;11062;51.164;16.924;2022-12-18T03:35:19;240.63;;;85.65;;
21800;SDS011;11062;51.164;16.924;2022-12-18T03:37:49;223.57;;;84.15;;
21800;SDS011;11062;51.164;16.924;2022-12-18T03:40:15;237.70;;;90.55;;
21800;SDS011;11062;51.164;16.924;2022-12-18T03:42:59;218.82;;;84.88;;
21800;SDS011;11062;51.164;16.924;2022-12-18T03:45:42;236.50;;;87.07;;
21800;SDS011;11062;51.164;16.924;2022-12-18T03:48:18;264.77;;;98.50;;
21800;SDS011;11062;51.164;16.924;2022-12-18T03:50:57;233.88;;;94.53;;
21800;SDS011;11062;51.164;16.924;2022-12-18T03:56:12;242.32;;;95.38;;
21800;SDS011;11062;51.164;16.924;2022-12-18T03:58:41;245.68;;;93.30;;
21800;SDS011;11062;51.164;16.924;2022-12-18T04:01:08;234.07;;;91.53;;
21800;SDS011;11062;51.164;16.924;2022-12-18T04:03:37;233.60;;;93.63;;
21800;SDS011;11062;51.164;16.924;2022-12-18T04:06:03;221.32;;;87.07;;
21800;SDS011;11062;51.164;16.924;2022-12-18T04:08:34;237.48;;;88.50;;
21800;SDS011;11062;51.164;16.924;2022-12-18T04:11:05;238.38;;;89.45;;
21800;SDS011;11062;51.164;16.924;2022-12-18T04:13:32;228.80;;;87.07;;
21800;SDS011;11062;51.164;16.924;2022-12-18T04:16:02;230.13;;;89.32;;
21800;SDS011;11062;51.164;16.924;2022-12-18T04:18:29;246.23;;;88.75;;
21800;SDS011;11062;51.164;16.924;2022-12-18T04:20:56;231.13;;;84.15;;
21800;SDS011;11062;51.164;16.924;2022-12-18T04:23:22;229.35;;;84.72;;
21800;SDS011;11062;51.164;16.924;2022-12-18T04:25:52;229.35;;;83.72;;
21800;SDS011;11062;51.164;16.924;2022-12-18T04:28:19;217.63;;;81.63;;
21800;SDS011;11062;51.164;16.924;2022-12-18T04:30:45;222.70;;;82.53;;
21800;SDS011;11062;51.164;16.924;2022-12-18T04:33:14;218.82;;;82.75;;
21800;SDS011;11062;51.164;16.924;2022-12-18T04:35:40;240.27;;;84.95;;
21800;SDS011;11062;51.164;16.924;2022-12-18T04:38:06;234.63;;;87.22;;
21800;SDS011;11062;51.164;16.924;2022-12-18T04:40:36;227.77;;;87.25;;
21800;SDS011;11062;51.164;16.924;2022-12-18T04:43:03;224.38;;;84.03;;
21800;SDS011;11062;51.164;16.924;2022-12-18T04:45:32;223.80;;;83.70;;
21800;SDS011;11062;51.164;16.924;2022-12-18T04:47:59;227.38;;;84.20;;
21800;SDS011;11062;51.164;16.924;2022-12-18T04:50:25;239.80;;;85.43;;
21800;SDS011;11062;51.164;16.924;2022-12-18T04:52:52;233.00;;;83.88;;
21800;SDS011;11062;51.164;16.924;2022-12-18T04:55:21;223.20;;;82.93;;
21800;SDS011;11062;51.164;16.924;2022-12-18T04:57:50;221.18;;;82.85;;
21800;SDS011;11062;51.164;16.924;2022-12-18T05:00:16;230.00;;;84.60;;
21800;SDS011;11062;51.164;16.924;2022-12-18T05:02:42;231.02;;;81.50;;
21800;SDS011;11062;51.164;16.924;2022-12-18T05:05:09;216.88;;;82.22;;
21800;SDS011;11062;51.164;16.924;2022-12-18T05:07:37;215.30;;;79.85;;
21800;SDS011;11062;51.164;16.924;2022-12-18T05:10:03;223.88;;;82.80;;
21800;SDS011;11062;51.164;16.924;2022-12-18T05:12:33;225.27;;;82.28;;
21800;SDS011;11062;51.164;16.924;2022-12-18T05:15:23;225.27;;;83.05;;
21800;SDS011;11062;51.164;16.924;2022-12-18T05:17:51;230.57;;;84.88;;
21800;SDS011;11062;51.164;16.924;2022-12-18T05:20:20;222.85;;;83.20;;
21800;SDS011;11062;51.164;16.924;2022-12-18T05:22:49;227.27;;;86.88;;
21800;SDS011;11062;51.164;16.924;2022-12-18T05:25:16;229.82;;;90.80;;
21800;SDS011;11062;51.164;16.924;2022-12-18T06:48:34;226.60;;;87.75;;
21800;SDS011;11062;51.164;16.924;2022-12-18T06:51:02;228.25;;;88.43;;
21800;SDS011;11062;51.164;16.924;2022-12-18T06:53:28;238.85;;;94.53;;
21800;SDS011;11062;51.164;16.924;2022-12-18T06:56:05;224.02;;;86.93;;
21800;SDS011;11062;51.164;16.924;2022-12-18T06:58:32;227.60;;;87.45;;
21800;SDS011;11062;51.164;16.924;2022-12-18T07:01:06;220.35;;;87.10;;
21800;SDS011;11062;51.164;16.924;2022-12-18T07:03:34;237.27;;;89.28;;
21800;SDS011;11062;51.164;16.924;2022-12-18T07:06:03;241.95;;;91.07;;
21800;SDS011;11062;51.164;16.924;2022-12-18T07:08:32;247.68;;;100.03;;
21800;SDS011;11062;51.164;16.924;2022-12-18T07:10:59;243.25;;;106.57;;
21800;SDS011;11062;51.164;16.924;2022-12-18T07:13:28;247.13;;;108.05;;
21800;SDS011;11062;51.164;16.924;2022-12-18T07:16:04;243.45;;;100.93;;
21800;SDS011;11062;51.164;16.924;2022-12-18T07:18:33;246.55;;;95.07;;
21800;SDS011;11062;51.164;16.924;2022-12-18T07:21:06;268.70;;;121.03;;
21800;SDS011;11062;51.164;16.924;2022-12-18T07:23:34;312.65;;;116.32;;
21800;SDS011;11062;51.164;16.924;2022-12-18T07:26:04;254.40;;;103.72;;
21800;SDS011;11062;51.164;16.924;2022-12-18T07:28:32;260.98;;;111.63;;
21800;SDS011;11062;51.164;16.924;2022-12-18T07:31:02;258.95;;;102.32;;
21800;SDS011;11062;51.164;16.924;2022-12-18T07:33:34;247.23;;;97.28;;
21800;SDS011;11062;51.164;16.924;2022-12-18T07:36:01;270.40;;;106.45;;
21800;SDS011;11062;51.164;16.924;2022-12-18T07:38:28;247.10;;;98.90;;
21800;SDS011;11062;51.164;16.924;2022-12-18T07:41:05;264.85;;;111.60;;
21800;SDS011;11062;51.164;16.924;2022-12-18T07:43:33;240.43;;;105.43;;
21800;SDS011;11062;51.164;16.924;2022-12-18T07:46:03;239.45;;;95.18;;
21800;SDS011;11062;51.164;16.924;2022-12-18T07:48:32;240.43;;;91.07;;
21800;SDS011;11062;51.164;16.924;2022-12-18T07:51:05;241.13;;;93.55;;
21800;SDS011;11062;51.164;16.924;2022-12-18T07:53:33;231.60;;;98.53;;
21800;SDS011;11062;51.164;16.924;2022-12-18T07:56:01;252.35;;;103.20;;
21800;SDS011;11062;51.164;16.924;2022-12-18T09:52:37;255.48;;;94.47;;
21800;SDS011;11062;51.164;16.924;2022-12-18T09:55:20;239.57;;;88.97;;
21800;SDS011;11062;51.164;16.924;2022-12-18T09:58:15;312.67;;;113.05;;
21800;SDS011;11062;51.164;16.924;2022-12-18T10:01:15;266.77;;;100.60;;
21800;SDS011;11062;51.164;16.924;2022-12-18T10:03:46;250.10;;;93.75;;
21800;SDS011;11062;51.164;16.924;2022-12-18T10:12:06;233.02;;;88.20;;
21800;SDS011;11062;51.164;16.924;2022-12-18T10:25:21;237.60;;;88.75;;
21800;SDS011;11062;51.164;16.924;2022-12-18T10:28:00;241.98;;;86.72;;
21800;SDS011;11062;51.164;16.924;2022-12-18T10:30:36;245.45;;;86.25;;
21800;SDS011;11062;51.164;16.924;2022-12-18T10:33:19;252.13;;;89.93;;
21800;SDS011;11062;51.164;16.924;2022-12-18T12:51:45;239.82;;;88.45;;
21800;SDS011;11062;51.164;16.924;2022-12-18T13:47:31;257.73;;;93.95;;
21800;SDS011;11062;51.164;16.924;2022-12-18T14:15:49;248.55;;;90.82;;
21800;SDS011;11062;51.164;16.924;2022-12-18T14:22:18;247.32;;;92.70;;
21800;SDS011;11062;51.164;16.924;2022-12-18T14:24:47;245.15;;;89.55;;
21800;SDS011;11062;51.164;16.924;2022-12-18T14:27:29;249.85;;;95.25;;
21800;SDS011;11062;51.164;16.924;2022-12-18T14:29:55;259.65;;;97.93;;
21800;SDS011;11062;51.164;16.924;2022-12-18T14:32:24;248.38;;;93.88;;
21800;SDS011;11062;51.164;16.924;2022-12-18T14:34:59;265.83;;;96.75;;
21800;SDS011;11062;51.164;16.924;2022-12-18T14:37:41;255.32;;;92.35;;
21800;SDS011;11062;51.164;16.924;2022-12-18T14:40:12;236.25;;;92.18;;
21800;SDS011;11062;51.164;16.924;2022-12-18T14:42:41;245.82;;;92.43;;
21800;SDS011;11062;51.164;16.924;2022-12-18T14:50:38;245.30;;;90.85;;
21800;SDS011;11062;51.164;16.924;2022-12-18T14:53:52;287.70;;;129.35;;
21800;SDS011;11062;51.164;16.924;2022-12-18T15:20:59;283.90;;;94.65;;
21800;SDS011;11062;51.164;16.924;2022-12-18T15:26:21;238.93;;;91.88;;
21800;SDS011;11062;51.164;16.924;2022-12-18T15:28:51;242.23;;;90.78;;
21800;SDS011;11062;51.164;16.924;2022-12-18T15:31:39;232.55;;;87.05;;
21800;SDS011;11062;51.164;16.924;2022-12-18T15:37:02;246.10;;;92.40;;
21800;SDS011;11062;51.164;16.924;2022-12-18T15:39:28;237.65;;;93.32;;
21800;SDS011;11062;51.164;16.924;2022-12-18T16:12:47;231.68;;;89.82;;
21800;SDS011;11062;51.164;16.924;2022-12-18T16:15:16;242.55;;;93.95;;
21800;SDS011;11062;51.164;16.924;2022-12-18T16:17:43;245.57;;;93.90;;
21800;SDS011;11062;51.164;16.924;2022-12-18T16:20:27;261.13;;;96.15;;
21800;SDS011;11062;51.164;16.924;2022-12-18T16:22:59;246.10;;;95.88;;
21800;SDS011;11062;51.164;16.924;2022-12-18T16:25:30;257.85;;;99.38;;
21800;SDS011;11062;51.164;16.924;2022-12-18T16:27:59;249.23;;;96.13;;
21800;SDS011;11062;51.164;16.924;2022-12-18T17:27:31;244.63;;;93.20;;
21800;SDS011;11062;51.164;16.924;2022-12-18T17:30:01;249.63;;;94.85;;
21800;SDS011;11062;51.164;16.924;2022-12-18T17:32:28;252.73;;;95.78;;
21800;SDS011;11062;51.164;16.924;2022-12-18T17:34:54;255.20;;;94.88;;
21800;SDS011;11062;51.164;16.924;2022-12-18T17:37:20;258.65;;;93.22;;
21800;SDS011;11062;51.164;16.924;2022-12-18T17:39:52;271.35;;;97.00;;
21800;SDS011;11062;51.164;16.924;2022-12-18T17:42:18;246.95;;;94.15;;
21800;SDS011;11062;51.164;16.924;2022-12-18T17:44:44;250.85;;;94.07;;
21800;SDS011;11062;51.164;16.924;2022-12-18T17:47:17;267.92;;;95.30;;
21800;SDS011;11062;51.164;16.924;2022-12-18T17:49:43;241.35;;;92.55;;
21800;SDS011;11062;51.164;16.924;2022-12-18T17:52:10;265.58;;;94.63;;
21800;SDS011;11062;51.164;16.924;2022-12-18T17:54:36;232.93;;;91.20;;
21800;SDS011;11062;51.164;16.924;2022-12-18T17:57:06;245.68;;;91.80;;
21800;SDS011;11062;51.164;16.924;2022-12-18T17:59:35;245.48;;;94.30;;
21800;SDS011;11062;51.164;16.924;2022-12-18T18:02:01;245.13;;;91.82;;
21800;SDS011;11062;51.164;16.924;2022-12-18T18:04:27;238.45;;;91.40;;
21800;SDS011;11062;51.164;16.924;2022-12-18T18:06:54;254.23;;;93.97;;
21800;SDS011;11062;51.164;16.924;2022-12-18T18:09:27;243.40;;;91.63;;
21800;SDS011;11062;51.164;16.924;2022-12-18T18:11:53;236.20;;;91.18;;
21800;SDS011;11062;51.164;16.924;2022-12-18T18:14:38;240.27;;;94.32;;
21800;SDS011;11062;51.164;16.924;2022-12-18T18:17:04;262.45;;;95.88;;
21800;SDS011;11062;51.164;16.924;2022-12-18T18:19:31;245.65;;;90.43;;
21800;SDS011;11062;51.164;16.924;2022-12-18T18:21:58;241.80;;;90.13;;
21800;SDS011;11062;51.164;16.924;2022-12-18T18:24:36;249.82;;;101.53;;
21800;SDS011;11062;51.164;16.924;2022-12-18T18:30:21;259.00;;;99.57;;
21800;SDS011;11062;51.164;16.924;2022-12-18T18:36:46;245.95;;;92.53;;
21800;SDS011;11062;51.164;16.924;2022-12-18T18:39:15;239.63;;;89.10;;
21800;SDS011;11062;51.164;16.924;2022-12-18T18:41:45;245.55;;;92.55;;
21800;SDS011;11062;51.164;16.924;2022-12-18T18:44:15;256.60;;;96.55;;
21800;SDS011;11062;51.164;16.924;2022-12-18T18:46:45;259.80;;;95.57;;
21800;SDS011;11062;51.164;16.924;2022-12-18T18:56:19;258.50;;;97.00;;
21800;SDS011;11062;51.164;16.924;2022-12-18T18:58:46;261.85;;;98.40;;
21800;SDS011;11062;51.164;16.924;2022-12-18T19:01:17;273.63;;;109.85;;
21800;SDS011;11062;51.164;16.924;2022-12-18T19:03:47;277.17;;;107.93;;
21800;SDS011;11062;51.164;16.924;2022-12-18T19:09:36;270.92;;;113.03;;
21800;SDS011;11062;51.164;16.924;2022-12-18T19:12:02;263.08;;;112.85;;
21800;SDS011;11062;51.164;16.924;2022-12-18T19:14:47;265.73;;;107.65;;
21800;SDS011;11062;51.164;16.924;2022-12-18T19:17:32;269.63;;;98.40;;
21800;SDS011;11062;51.164;16.924;2022-12-18T19:20:00;261.50;;;96.65;;
21800;SDS011;11062;51.164;16.924;2022-12-18T19:22:27;271.25;;;99.65;;
21800;SDS011;11062;51.164;16.924;2022-12-18T19:24:53;264.73;;;99.57;;
21800;SDS011;11062;51.164;16.924;2022-12-18T19:27:28;267.63;;;101.20;;
21800;SDS011;11062;51.164;16.924;2022-12-18T19:29:54;255.98;;;98.45;;
21800;SDS011;11062;51.164;16.924;2022-12-18T19:32:21;264.15;;;100.32;;
21800;SDS011;11062;51.164;16.924;2022-12-18T19:34:47;248.15;;;95.88;;
21800;SDS011;11062;51.164;16.924;2022-12-18T19:37:19;257.75;;;97.47;;
21800;SDS011;11062;51.164;16.924;2022-12-18T19:39:45;258.75;;;97.35;;
21800;SDS011;11062;51.164;16.924;2022-12-18T19:42:11;272.73;;;111.25;;
21800;SDS011;11062;51.164;16.924;2022-12-18T19:44:39;272.23;;;105.97;;
21800;SDS011;11062;51.164;16.924;2022-12-18T21:35:42;267.40;;;100.10;;
21800;SDS011;11062;51.164;16.924;2022-12-18T21:38:10;266.70;;;102.15;;
21800;SDS011;11062;51.164;16.924;2022-12-18T21:40:38;252.57;;;94.82;;
21800;SDS011;11062;51.164;16.924;2022-12-18T21:43:04;271.73;;;99.78;;
21800;SDS011;11062;51.164;16.924;2022-12-18T21:45:51;273.55;;;101.63;;
21800;SDS011;11062;51.164;16.924;2022-12-18T21:48:21;259.65;;;100.93;;
21800;SDS011;11062;51.164;16.924;2022-12-18T21:50:50;266.63;;;100.53;;
21800;SDS011;11062;51.164;16.924;2022-12-18T21:53:16;254.90;;;98.00;;
21800;SDS011;11062;51.164;16.924;2022-12-18T21:55:42;281.85;;;101.65;;
21800;SDS011;11062;51.164;16.924;2022-12-18T21:58:08;276.42;;;100.82;;
21800;SDS011;11062;51.164;16.924;2022-12-18T22:00:34;262.85;;;99.35;;
21800;SDS011;11062;51.164;16.924;2022-12-18T22:03:01;263.98;;;96.22;;
21800;SDS011;11062;51.164;16.924;2022-12-18T22:05:27;266.90;;;99.68;;
21800;SDS011;11062;51.164;16.924;2022-12-18T22:07:53;261.23;;;98.15;;
21800;SDS011;11062;51.164;16.924;2022-12-18T22:10:19;260.40;;;98.78;;
21800;SDS011;11062;51.164;16.924;2022-12-18T22:12:46;274.90;;;100.05;;
21800;SDS011;11062;51.164;16.924;2022-12-18T22:15:12;252.10;;;97.40;;
21800;SDS011;11062;51.164;16.924;2022-12-18T22:17:38;274.23;;;103.43;;
21800;SDS011;11062;51.164;16.924;2022-12-18T22:20:05;270.00;;;101.50;;
21800;SDS011;11062;51.164;16.924;2022-12-18T22:22:33;264.38;;;97.97;;
21800;SDS011;11062;51.164;16.924;2022-12-18T22:24:59;262.88;;;98.70;;
21800;SDS011;11062;51.164;16.924;2022-12-18T22:27:26;289.20;;;101.95;;
21800;SDS011;11062;51.164;16.924;2022-12-18T22:29:53;262.98;;;98.78;;
21800;SDS011;11062;51.164;16.924;2022-12-18T22:34:54;243.35;;;94.50;;
21800;SDS011;11062;51.164;16.924;2022-12-18T22:37:23;248.50;;;94.95;;
21800;SDS011;11062;51.164;16.924;2022-12-18T22:39:49;252.27;;;96.13;;
21800;SDS011;11062;51.164;16.924;2022-12-18T22:42:18;261.73;;;97.63;;
21800;SDS011;11062;51.164;16.924;2022-12-18T22:44:44;259.08;;;97.55;;
21800;SDS011;11062;51.164;16.924;2022-12-18T22:47:10;243.95;;;93.65;;
21800;SDS011;11062;51.164;16.924;2022-12-18T22:49:36;252.02;;;94.22;;
21800;SDS011;11062;51.164;16.924;2022-12-18T22:52:03;260.25;;;98.47;;
21800;SDS011;11062;51.164;16.924;2022-12-18T22:54:31;262.70;;;99.95;;
21800;SDS011;11062;51.164;16.924;2022-12-18T22:56:57;256.95;;;97.88;;
21800;SDS011;11062;51.164;16.924;2022-12-18T22:59:23;261.17;;;99.93;;
21800;SDS011;11062;51.164;16.924;2022-12-18T23:01:50;256.30;;;95.93;;
21800;SDS011;11062;51.164;16.924;2022-12-18T23:04:20;258.00;;;97.00;;
21800;SDS011;11062;51.164;16.924;2022-12-18T23:06:46;284.58;;;100.28;;
21800;SDS011;11062;51.164;16.924;2022-12-18T23:09:14;276.55;;;104.88;;
21800;SDS011;11062;51.164;16.924;2022-12-18T23:11:41;264.48;;;100.32;;
21800;SDS011;11062;51.164;16.924;2022-12-18T23:14:07;311.08;;;106.63;;
21800;SDS011;11062;51.164;16.924;2022-12-18T23:16:34;277.23;;;103.13;;
21800;SDS011;11062;51.164;16.924;2022-12-18T23:19:00;256.52;;;99.03;;
21800;SDS011;11062;51.164;16.924;2022-12-18T23:21:27;265.38;;;99.90;;
21800;SDS011;11062;51.164;16.924;2022-12-18T23:23:59;257.10;;;97.45;;
21800;SDS011;11062;51.164;16.924;2022-12-18T23:26:26;259.08;;;100.72;;
21800;SDS011;11062;51.164;16.924;2022-12-18T23:28:52;257.23;;;100.30;;
21800;SDS011;11062;51.164;16.924;2022-12-18T23:31:21;275.38;;;103.82;;
21800;SDS011;11062;51.164;16.924;2022-12-18T23:33:52;302.65;;;104.97;;
21800;SDS011;11062;51.164;16.924;2022-12-18T23:36:19;268.40;;;99.25;;
21800;SDS011;11062;51.164;16.924;2022-12-18T23:38:47;268.88;;;99.53;;
21800;SDS011;11062;51.164;16.924;2022-12-18T23:41:15;270.38;;;101.97;;
21800;SDS011;11062;51.164;16.924;2022-12-18T23:43:42;273.30;;;105.47;;
21800;SDS011;11062;51.164;16.924;2022-12-18T23:46:09;275.17;;;102.63;;
21800;SDS011;11062;51.164;16.924;2022-12-18T23:48:36;265.08;;;102.82;;
21800;SDS011;11062;51.164;16.924;2022-12-18T23:51:06;267.23;;;101.40;;
21800;SDS011;11062;51.164;16.924;2022-12-18T23:53:33;281.50;;;105.50;;
21800;SDS011;11062;51.164;16.924;2022-12-18T23:56:02;278.15;;;104.00;;
21800;SDS011;11062;51.164;16.924;2022-12-18T23:58:29;273.63;;;101.95;;
